CheckWX is a tool to help pilots better visualize weather data.  It is not intended as a substitute for an official pre-flight weather briefing.

12:49:20 UTC

KADH METAR
Ada Regional Airport
Ada, Oklahoma, USA
Current

34 mins ago

KADH 221215Z AUTO 06005KT 2SM BR OVC002 04/04 A3004 RMK AO2 P0001
Observed
Feb-22 @ 12:15 UTC
Wind
  • 060° at 5 KTS
Visibility
2 SM
Flight Rules
LIFR
Conditions
Mist
Cloud Levels
  • Overcast at 200' AGL
Temperature
C / 39°F
Dewpoint
C / 39°F
Humidity
100%
Altimeter
30.04" Hg
Pressure
1017.32 hPa
Current Rain
0.01"
Previous

54 mins ago

KADH 221155Z AUTO 08004KT 1 3/4SM BR OVC004 04/04 A3004 RMK AO2
Observed
Feb-22 @ 11:55 UTC
Wind
  • 080° at 4 KTS
Visibility
1 3/4 SM
Flight Rules
LIFR
Conditions
Mist
Cloud Levels
  • Overcast at 400' AGL
Temperature
C / 39°F
Dewpoint
C / 39°F
Humidity
100%
Altimeter
30.04" Hg
Pressure
1017.32 hPa
Previous

1 hour ago

KADH 221135Z AUTO 09007KT 2 1/2SM BR OVC002 04/04 A3003 RMK AO2
Observed
Feb-22 @ 11:35 UTC
Wind
  • 090° at 7 KTS
Visibility
2 1/2 SM
Flight Rules
LIFR
Conditions
Mist
Cloud Levels
  • Overcast at 200' AGL
Temperature
C / 39°F
Dewpoint
C / 39°F
Humidity
100%
Altimeter
30.03" Hg
Pressure
1016.92 hPa